createdAt,value
2022-08-11T00:01:29.406Z,3.33
2022-08-11T00:03:59.604Z,3.28
2022-08-11T00:06:28.948Z,3.10
2022-08-11T00:08:58.827Z,3.03
2022-08-11T00:11:37.544Z,3.10
2022-08-11T00:14:12.947Z,3.00
2022-08-11T00:16:42.182Z,2.97
2022-08-11T00:19:11.283Z,2.95
2022-08-11T00:22:03.941Z,3.33
2022-08-11T00:24:51.698Z,3.53
2022-08-11T00:27:20.760Z,3.00
2022-08-11T00:29:55.202Z,3.08
2022-08-11T00:32:22.565Z,2.95
2022-08-11T00:34:50.144Z,2.70
2022-08-11T00:37:23.288Z,3.00
2022-08-11T00:39:53.843Z,2.90
2022-08-11T00:43:03.017Z,2.80
2022-08-11T00:45:59.381Z,2.67
2022-08-11T00:48:42.365Z,3.35
2022-08-11T00:52:04.417Z,2.90
2022-08-11T00:54:50.946Z,3.20
2022-08-11T00:57:38.237Z,2.75
2022-08-11T01:00:19.056Z,2.90
2022-08-11T01:03:07.582Z,3.13
2022-08-11T01:06:08.086Z,2.88
2022-08-11T01:08:38.239Z,2.78
2022-08-11T01:11:20.184Z,3.20
2022-08-11T01:14:08.496Z,3.50
2022-08-11T01:17:00.985Z,2.90
2022-08-11T01:20:44.584Z,2.90
2022-08-11T01:23:41.342Z,2.90
2022-08-11T01:26:29.478Z,3.08
2022-08-11T01:29:52.686Z,3.30
2022-08-11T01:32:57.165Z,3.13
2022-08-11T01:35:53.356Z,3.00
2022-08-11T01:38:40.231Z,3.38
2022-08-11T01:42:00.727Z,3.00
2022-08-11T01:44:46.487Z,3.15
2022-08-11T01:47:53.015Z,3.22
2022-08-11T01:50:47.612Z,2.92
2022-08-11T01:53:33.761Z,3.00
2022-08-11T01:56:15.682Z,3.25
2022-08-11T01:58:54.085Z,3.00
2022-08-11T02:01:37.515Z,3.20
2022-08-11T02:04:29.112Z,3.10
2022-08-11T02:07:19.321Z,3.10
2022-08-11T02:10:35.502Z,3.17
2022-08-11T02:13:30.328Z,3.10
2022-08-11T02:16:29.267Z,3.28
2022-08-11T02:22:20.010Z,2.80
2022-08-11T02:25:04.464Z,3.22
2022-08-11T02:27:45.937Z,3.10
2022-08-11T02:30:16.540Z,3.28
2022-08-11T02:33:27.546Z,3.00
2022-08-11T02:36:10.732Z,3.42
2022-08-11T02:38:51.828Z,3.65
2022-08-11T02:42:02.367Z,3.30
2022-08-11T02:45:04.519Z,3.20
2022-08-11T02:48:25.128Z,3.05
2022-08-11T02:51:08.582Z,3.83
2022-08-11T02:53:58.266Z,3.13
2022-08-11T02:56:32.509Z,3.15
2022-08-11T02:59:50.289Z,3.40
2022-08-11T03:02:42.981Z,3.00
2022-08-11T03:05:14.518Z,3.65
2022-08-11T03:07:59.383Z,3.33
2022-08-11T03:11:13.360Z,3.60
2022-08-11T03:14:07.855Z,3.30
2022-08-11T03:17:11.164Z,3.17
2022-08-11T03:19:46.813Z,3.65
2022-08-11T03:22:30.250Z,3.33
2022-08-11T03:25:15.748Z,3.03
2022-08-11T03:28:06.024Z,3.47
2022-08-11T03:30:56.886Z,3.80
2022-08-11T03:33:53.805Z,3.90
2022-08-11T03:36:28.715Z,3.22
2022-08-11T03:39:05.340Z,3.17
2022-08-11T03:42:01.395Z,3.87
2022-08-11T03:45:02.851Z,3.90
2022-08-11T03:47:53.447Z,3.63
2022-08-11T03:53:02.655Z,3.42
2022-08-11T03:56:06.385Z,3.20
2022-08-11T03:59:01.902Z,3.65
2022-08-11T04:01:59.789Z,3.70
2022-08-11T04:04:57.890Z,3.97
2022-08-11T04:07:59.569Z,3.60
2022-08-11T04:10:46.372Z,3.70
2022-08-11T04:13:31.951Z,4.07
2022-08-11T04:16:12.258Z,4.07
2022-08-11T04:19:03.018Z,3.97
2022-08-11T04:21:44.826Z,4.00
2022-08-11T04:24:39.582Z,4.30
2022-08-11T04:27:37.309Z,3.83
2022-08-11T04:30:14.858Z,4.10
2022-08-11T04:33:00.063Z,4.05
2022-08-11T04:35:59.582Z,4.00
2022-08-11T04:39:09.325Z,4.22
2022-08-11T04:42:44.195Z,3.88
2022-08-11T04:45:39.313Z,4.18
2022-08-11T04:49:07.112Z,4.15
2022-08-11T04:52:37.637Z,4.22
2022-08-11T04:55:32.368Z,4.00
2022-08-11T04:58:31.456Z,4.25
2022-08-11T05:01:41.575Z,4.00
2022-08-11T05:05:09.071Z,4.00
2022-08-11T05:08:01.606Z,4.00
2022-08-11T05:13:48.048Z,4.53
2022-08-11T05:16:38.153Z,3.72
2022-08-11T05:19:23.880Z,4.43
2022-08-11T05:22:16.321Z,4.18
2022-08-11T05:25:07.377Z,4.20
2022-08-11T05:28:09.010Z,4.50
2022-08-11T05:31:00.470Z,4.57
2022-08-11T05:34:10.616Z,4.18
2022-08-11T05:37:23.817Z,4.82
2022-08-11T05:40:18.637Z,4.63
2022-08-11T05:43:21.441Z,4.32
2022-08-11T05:46:25.209Z,4.60
2022-08-11T05:49:11.452Z,4.80
2022-08-11T05:52:05.451Z,4.30
2022-08-11T05:55:06.996Z,4.85
2022-08-11T05:57:48.546Z,4.95
2022-08-11T06:00:19.849Z,4.35
2022-08-11T06:02:55.375Z,5.55
2022-08-11T06:05:38.428Z,4.72
2022-08-11T06:08:13.771Z,4.80
2022-08-11T06:10:43.889Z,4.90
2022-08-11T06:13:15.948Z,4.60
2022-08-11T06:15:49.777Z,4.90
2022-08-11T06:18:18.146Z,4.75
2022-08-11T06:20:50.369Z,4.80
2022-08-11T06:23:20.579Z,4.65
2022-08-11T06:25:48.578Z,5.40
2022-08-11T06:28:21.109Z,5.13
2022-08-11T06:30:49.628Z,5.13
2022-08-11T06:33:22.705Z,5.20
2022-08-11T06:36:07.834Z,4.53
2022-08-11T06:38:59.451Z,4.72
2022-08-11T06:41:35.897Z,4.55
2022-08-11T06:44:13.165Z,5.00
2022-08-11T06:46:43.589Z,5.25
2022-08-11T06:49:32.441Z,4.38
2022-08-11T06:52:02.941Z,4.57
2022-08-11T06:54:41.392Z,4.38
2022-08-11T06:57:32.459Z,4.18
2022-08-11T07:00:19.364Z,4.50
2022-08-11T07:03:08.288Z,4.30
2022-08-11T07:05:56.521Z,4.55
2022-08-11T07:09:14.402Z,4.30
2022-08-11T07:12:09.073Z,4.45
2022-08-11T07:15:00.376Z,4.30
2022-08-11T07:17:32.148Z,4.20
2022-08-11T07:20:22.431Z,3.95
2022-08-11T07:23:17.942Z,4.38
2022-08-11T07:26:10.391Z,4.35
2022-08-11T07:29:00.758Z,4.03
2022-08-11T07:31:50.501Z,4.40
2022-08-11T07:34:47.211Z,4.10
2022-08-11T07:37:17.913Z,4.30
2022-08-11T07:39:48.100Z,3.97
2022-08-11T07:42:21.541Z,4.47
2022-08-11T07:45:08.547Z,3.88
2022-08-11T07:47:56.249Z,3.92
2022-08-11T07:50:42.885Z,3.90
2022-08-11T07:53:14.609Z,3.63
2022-08-11T07:55:51.240Z,3.97
2022-08-11T07:58:45.101Z,3.65
2022-08-11T08:01:41.916Z,4.32
2022-08-11T08:04:30.264Z,3.50
2022-08-11T08:07:16.580Z,4.00
2022-08-11T08:10:03.606Z,3.88
2022-08-11T08:12:50.172Z,3.63
2022-08-11T08:15:36.731Z,3.83
2022-08-11T08:18:20.852Z,3.85
2022-08-11T08:20:55.051Z,4.22
2022-08-11T08:23:34.831Z,3.75
2022-08-11T08:26:28.169Z,3.75
2022-08-11T08:29:21.041Z,3.75
2022-08-11T08:31:49.548Z,3.67
2022-08-11T08:34:17.838Z,3.80
2022-08-11T08:36:47.174Z,3.78
2022-08-11T08:39:20.648Z,3.30
2022-08-11T08:41:57.600Z,3.65
2022-08-11T08:44:42.089Z,3.67
2022-08-11T08:47:16.857Z,3.70
2022-08-11T08:50:21.930Z,3.35
2022-08-11T08:53:05.759Z,3.78
2022-08-11T08:55:34.550Z,3.58
2022-08-11T08:58:03.011Z,2.97
2022-08-11T09:00:42.263Z,3.47
2022-08-11T09:03:36.415Z,3.63
2022-08-11T09:05:58.698Z,3.47
2022-08-11T09:08:25.867Z,3.95
2022-08-11T09:11:14.832Z,3.72
2022-08-11T09:13:46.364Z,3.60
2022-08-11T09:16:31.467Z,3.50
2022-08-11T09:19:01.231Z,3.85
2022-08-11T09:21:48.562Z,3.63
2022-08-11T09:24:36.579Z,3.47
2022-08-11T09:27:07.387Z,3.47
2022-08-11T09:29:35.467Z,3.80
2022-08-11T09:32:02.820Z,3.63
2022-08-11T09:34:30.671Z,3.30
2022-08-11T09:37:28.401Z,4.03
2022-08-11T09:40:27.473Z,3.58
2022-08-11T09:43:17.441Z,3.65
2022-08-11T09:45:50.531Z,3.92
2022-08-11T09:48:25.738Z,3.25
2022-08-11T09:50:55.588Z,3.50
2022-08-11T09:53:36.475Z,3.58
2022-08-11T09:56:39.269Z,3.35
2022-08-11T09:59:07.345Z,3.92
2022-08-11T10:02:03.550Z,3.63
2022-08-11T10:04:46.274Z,3.55
2022-08-11T10:07:20.475Z,3.47
2022-08-11T10:09:59.259Z,3.83
2022-08-11T10:12:34.129Z,3.50
2022-08-11T10:15:27.604Z,3.75
2022-08-11T10:18:20.974Z,3.60
2022-08-11T10:20:50.683Z,3.75
2022-08-11T10:24:00.074Z,3.72
2022-08-11T10:26:47.872Z,3.80
2022-08-11T10:29:36.749Z,3.63
2022-08-11T10:32:27.044Z,3.85
2022-08-11T10:35:01.463Z,3.67
2022-08-11T10:38:15.741Z,3.55
2022-08-11T10:40:25.783Z,3.88
2022-08-11T10:43:13.377Z,3.47
2022-08-11T10:46:05.146Z,3.70
2022-08-11T10:48:39.212Z,3.85
2022-08-11T10:51:13.576Z,3.70
2022-08-11T10:54:12.758Z,4.20
2022-08-11T10:56:59.143Z,3.63
2022-08-11T10:59:29.966Z,3.47
2022-08-11T11:01:59.111Z,3.78
2022-08-11T11:04:58.252Z,3.85
2022-08-11T11:07:44.178Z,3.45
2022-08-11T11:10:12.932Z,3.65
2022-08-11T11:13:02.748Z,3.45
2022-08-11T11:15:54.037Z,3.50
2022-08-11T11:18:36.670Z,3.38
2022-08-11T11:21:10.550Z,3.70
2022-08-11T11:23:49.217Z,3.80
2022-08-11T11:26:27.018Z,3.78
2022-08-11T11:29:20.953Z,3.03
2022-08-11T11:31:56.733Z,3.40
2022-08-11T11:34:47.888Z,3.00
2022-08-11T11:37:23.613Z,3.22
2022-08-11T11:39:54.328Z,3.20
2022-08-11T11:42:22.589Z,3.65
2022-08-11T11:44:53.020Z,3.20
2022-08-11T11:47:23.057Z,2.95
2022-08-11T11:50:12.873Z,3.15
2022-08-11T11:52:41.136Z,2.85
2022-08-11T11:55:15.477Z,2.95
2022-08-11T11:58:03.033Z,3.13
2022-08-11T12:00:58.362Z,3.17
2022-08-11T12:03:26.727Z,3.13
2022-08-11T12:05:55.942Z,3.53
2022-08-11T12:08:27.770Z,3.65
2022-08-11T12:11:20.258Z,2.90
2022-08-11T12:13:53.136Z,3.47
2022-08-11T12:16:35.070Z,3.40
2022-08-11T12:19:15.249Z,3.25
2022-08-11T12:22:02.641Z,3.40
2022-08-11T12:24:51.014Z,2.85
2022-08-11T12:27:25.163Z,2.90
2022-08-11T12:30:05.714Z,3.00
2022-08-11T12:32:36.290Z,2.95
2022-08-11T12:35:04.430Z,3.05
2022-08-11T12:37:41.187Z,2.80
2022-08-11T12:40:49.572Z,3.13
2022-08-11T12:43:42.956Z,2.97
2022-08-11T12:46:16.429Z,2.97
2022-08-11T12:49:05.741Z,2.92
2022-08-11T12:52:14.626Z,2.90
2022-08-11T12:54:52.258Z,2.70
2022-08-11T12:57:53.335Z,3.08
2022-08-11T13:00:40.702Z,3.05
2022-08-11T13:03:28.781Z,2.80
2022-08-11T13:06:02.557Z,2.85
2022-08-11T13:08:38.225Z,3.00
2022-08-11T13:11:55.468Z,2.63
2022-08-11T13:14:16.821Z,3.60
2022-08-11T13:17:03.739Z,2.63
2022-08-11T13:19:31.489Z,2.53
2022-08-11T13:22:02.318Z,2.65
2022-08-11T13:24:30.272Z,2.40
2022-08-11T13:26:58.423Z,3.05
2022-08-11T13:29:28.858Z,2.92
2022-08-11T13:32:01.133Z,2.83
2022-08-11T13:34:31.151Z,3.20
2022-08-11T13:37:01.238Z,2.80
2022-08-11T13:39:32.244Z,2.78
2022-08-11T13:42:01.101Z,2.50
2022-08-11T13:44:31.373Z,2.50
2022-08-11T13:47:03.830Z,2.95
2022-08-11T13:49:33.258Z,3.15
2022-08-11T13:52:04.622Z,2.93
2022-08-11T13:54:35.017Z,2.80
2022-08-11T13:57:13.556Z,2.80
2022-08-11T13:59:49.982Z,2.70
2022-08-11T14:02:30.606Z,2.70
2022-08-11T14:05:23.933Z,3.15
2022-08-11T14:08:01.028Z,3.10
2022-08-11T14:10:32.932Z,2.88
2022-08-11T14:13:42.179Z,3.22
2022-08-11T14:16:20.070Z,3.45
2022-08-11T14:18:50.634Z,2.90
2022-08-11T14:21:37.737Z,2.85
2022-08-11T14:24:05.475Z,3.20
2022-08-11T14:26:38.954Z,2.78
2022-08-11T14:29:08.267Z,2.90
2022-08-11T14:31:38.356Z,2.90
2022-08-11T14:34:08.745Z,3.35
2022-08-11T14:36:40.619Z,3.10
2022-08-11T14:39:13.517Z,2.88
2022-08-11T14:42:11.714Z,3.17
2022-08-11T14:45:01.812Z,3.00
2022-08-11T14:47:34.786Z,3.05
2022-08-11T14:50:10.438Z,3.15
2022-08-11T14:53:05.502Z,3.30
2022-08-11T14:56:00.186Z,3.00
2022-08-11T14:58:30.353Z,2.92
2022-08-11T15:01:00.109Z,3.20
2022-08-11T15:03:31.704Z,3.28
2022-08-11T15:06:02.235Z,2.88
2022-08-11T15:08:49.670Z,3.00
2022-08-11T15:11:42.851Z,3.30
2022-08-11T15:14:12.044Z,3.22
2022-08-11T15:17:01.246Z,3.03
2022-08-11T15:19:36.905Z,3.03
2022-08-11T15:22:28.955Z,3.05
2022-08-11T15:24:59.306Z,3.00
2022-08-11T15:27:48.225Z,3.20
2022-08-11T15:30:34.375Z,2.88
2022-08-11T15:33:27.587Z,3.65
2022-08-11T15:36:15.498Z,3.28
2022-08-11T15:38:58.112Z,3.03
2022-08-11T15:42:01.998Z,3.15
2022-08-11T15:45:06.300Z,3.10
2022-08-11T15:47:48.666Z,3.35
2022-08-11T15:50:19.932Z,3.30
2022-08-11T15:53:16.581Z,3.55
2022-08-11T15:55:45.305Z,3.25
2022-08-11T15:58:33.024Z,3.40
2022-08-11T16:01:20.169Z,3.72
2022-08-11T16:04:13.361Z,3.55
2022-08-11T16:06:49.999Z,3.10
2022-08-11T16:09:47.673Z,3.35
2022-08-11T16:12:36.092Z,3.50
2022-08-11T16:15:26.017Z,3.20
2022-08-11T16:17:59.152Z,3.30
2022-08-11T16:20:28.787Z,3.15
2022-08-11T16:23:01.716Z,3.40
2022-08-11T16:26:38.022Z,2.85
2022-08-11T16:28:23.026Z,3.40
2022-08-11T16:30:53.479Z,3.15
2022-08-11T16:33:48.428Z,3.13
2022-08-11T16:36:31.780Z,2.97
2022-08-11T16:39:00.956Z,2.85
2022-08-11T16:41:50.320Z,3.03
2022-08-11T16:44:38.556Z,2.80
2022-08-11T16:47:10.956Z,3.17
2022-08-11T16:49:53.805Z,2.90
2022-08-11T16:52:23.566Z,3.10
2022-08-11T16:54:52.751Z,3.13
2022-08-11T16:57:44.636Z,3.15
2022-08-11T17:00:15.526Z,3.15
2022-08-11T17:03:15.698Z,3.10
2022-08-11T17:06:07.184Z,2.70
2022-08-11T17:08:58.884Z,2.70
2022-08-11T17:11:55.075Z,2.90
2022-08-11T17:14:37.027Z,3.10
2022-08-11T17:17:15.882Z,2.78
2022-08-11T17:20:38.245Z,3.45
2022-08-11T17:22:56.684Z,3.13
2022-08-11T17:25:28.369Z,3.10
2022-08-11T17:27:57.081Z,2.83
2022-08-11T17:30:47.253Z,3.00
2022-08-11T17:33:33.713Z,4.15
2022-08-11T17:36:01.785Z,3.35
2022-08-11T17:38:31.402Z,2.88
2022-08-11T17:41:23.685Z,2.80
2022-08-11T17:44:12.489Z,3.30
2022-08-11T17:47:25.689Z,3.00
2022-08-11T17:49:53.605Z,3.28
2022-08-11T17:55:51.958Z,3.50
2022-08-11T17:58:40.024Z,3.22
2022-08-11T18:01:09.529Z,3.28
2022-08-11T18:03:41.496Z,3.50
2022-08-11T18:06:12.882Z,3.45
2022-08-11T18:09:03.254Z,3.03
2022-08-11T18:12:06.603Z,3.28
2022-08-11T18:15:04.033Z,3.22
2022-08-11T18:17:51.811Z,3.22
2022-08-11T18:20:38.697Z,3.60
2022-08-11T18:23:46.305Z,3.20
2022-08-11T18:26:39.184Z,3.15
2022-08-11T18:29:27.603Z,3.90
2022-08-11T18:32:21.312Z,4.15
2022-08-11T18:35:10.736Z,3.00
2022-08-11T18:38:02.082Z,3.53
2022-08-11T18:40:49.627Z,3.25
2022-08-11T18:43:38.146Z,3.30
2022-08-11T18:46:30.065Z,3.85
2022-08-11T18:49:24.852Z,3.58
2022-08-11T18:52:16.498Z,3.85
2022-08-11T18:55:05.445Z,3.67
2022-08-11T18:57:58.722Z,3.75
2022-08-11T19:00:46.564Z,3.78
2022-08-11T19:03:43.499Z,3.78
2022-08-11T19:06:40.178Z,3.55
2022-08-11T19:09:33.199Z,3.80
2022-08-11T19:12:24.599Z,4.03
2022-08-11T19:15:11.590Z,4.15
2022-08-11T19:18:03.793Z,3.72
2022-08-11T19:20:51.966Z,4.22
2022-08-11T19:23:57.473Z,4.03
2022-08-11T19:26:43.350Z,3.70
2022-08-11T19:30:06.981Z,3.97
2022-08-11T19:32:39.234Z,3.92
2022-08-11T19:35:25.916Z,4.13
2022-08-11T19:38:13.855Z,3.95
2022-08-11T19:41:00.966Z,4.20
2022-08-11T19:43:49.529Z,4.15
2022-08-11T19:46:41.039Z,4.10
2022-08-11T19:49:28.189Z,3.88
2022-08-11T19:52:15.589Z,4.03
2022-08-11T19:55:03.061Z,4.30
2022-08-11T19:57:56.953Z,4.03
2022-08-11T20:00:44.009Z,4.32
2022-08-11T20:03:32.531Z,4.30
2022-08-11T20:06:24.474Z,4.03
2022-08-11T20:09:14.398Z,4.18
2022-08-11T20:12:03.165Z,4.32
2022-08-11T20:14:51.959Z,4.45
2022-08-11T20:17:39.941Z,4.00
2022-08-11T20:20:27.350Z,4.30
2022-08-11T20:23:15.728Z,4.60
2022-08-11T20:26:27.713Z,4.28
2022-08-11T20:29:12.451Z,4.38
2022-08-11T20:31:59.487Z,4.47
2022-08-11T20:34:50.376Z,4.85
2022-08-11T20:37:40.301Z,4.60
2022-08-11T20:40:26.886Z,4.50
2022-08-11T20:44:05.791Z,4.38
2022-08-11T20:46:49.520Z,4.40
2022-08-11T20:49:48.781Z,4.35
2022-08-11T20:52:50.434Z,4.93
2022-08-11T20:55:52.186Z,4.45
2022-08-11T20:59:13.366Z,5.15
2022-08-11T21:01:52.106Z,4.40
2022-08-11T21:07:42.209Z,5.03
2022-08-11T21:10:30.636Z,4.80
2022-08-11T21:13:25.298Z,5.20
2022-08-11T21:16:26.366Z,5.15
2022-08-11T21:20:01.511Z,4.70
2022-08-11T21:22:37.913Z,4.72
2022-08-11T21:25:28.360Z,5.10
2022-08-11T21:28:21.930Z,4.70
2022-08-11T21:31:08.780Z,4.97
2022-08-11T21:33:55.697Z,5.25
2022-08-11T21:36:43.622Z,5.18
2022-08-11T21:39:35.071Z,5.03
2022-08-11T21:42:22.605Z,4.75
2022-08-11T21:45:09.753Z,4.93
2022-08-11T21:48:01.163Z,4.57
2022-08-11T21:50:48.446Z,5.05
2022-08-11T21:53:34.408Z,4.88
2022-08-11T21:56:20.220Z,5.18
2022-08-11T21:59:07.484Z,4.70
2022-08-11T22:01:54.337Z,5.10
2022-08-11T22:04:40.317Z,4.97
2022-08-11T22:07:27.552Z,5.40
2022-08-11T22:10:37.026Z,5.50
2022-08-11T22:13:20.205Z,5.28
2022-08-11T22:16:05.999Z,4.88
2022-08-11T22:18:53.557Z,4.88
2022-08-11T22:22:03.170Z,4.90
2022-08-11T22:24:48.758Z,5.25
2022-08-11T22:27:34.226Z,5.40
2022-08-11T22:30:19.548Z,5.90
2022-08-11T22:33:05.400Z,5.20
2022-08-11T22:35:52.900Z,5.47
2022-08-11T22:38:40.406Z,5.63
2022-08-11T22:41:25.877Z,5.63
2022-08-11T22:44:11.541Z,5.53
2022-08-11T22:46:57.769Z,6.05
2022-08-11T22:49:57.471Z,5.80
2022-08-11T22:52:47.412Z,5.50
2022-08-11T22:55:34.734Z,5.30
2022-08-11T22:58:22.686Z,5.68
2022-08-11T23:01:09.778Z,5.38
2022-08-11T23:03:56.624Z,5.50
2022-08-11T23:06:43.960Z,5.25
2022-08-11T23:09:30.075Z,5.90
2022-08-11T23:12:16.172Z,5.88
2022-08-11T23:15:02.518Z,5.45
2022-08-11T23:17:48.914Z,5.80
2022-08-11T23:20:42.183Z,5.68
2022-08-11T23:23:41.313Z,6.00
2022-08-11T23:26:28.581Z,6.40
2022-08-11T23:29:18.552Z,6.38
2022-08-11T23:32:05.815Z,5.93
2022-08-11T23:35:04.775Z,5.10
2022-08-11T23:38:00.921Z,5.78
2022-08-11T23:40:46.411Z,5.63
2022-08-11T23:43:41.815Z,5.90
2022-08-11T23:46:27.890Z,5.72
2022-08-11T23:49:17.593Z,5.63
2022-08-11T23:52:05.344Z,5.47
2022-08-11T23:54:52.746Z,5.18
2022-08-11T23:57:47.732Z,5.53
